My.unforgettable — ZCIZ4 — position and weather

sailwx.info

Track history (hours):
 
Tides and Currents Weather Stations Pressure Air Temp Water Temp Dewpoint Dewpoint Depression Visibility Wind Speed Wind Dir Waves Ship Positions

My.unforgettable

Last reported at 2014-May-10 01:33 UTC. Time now 2014-Nov-23 13:30 UTC.
Position N 25°19' W 080°06'.
Warning: this ship's position is months out of date.

Length 42 m; draft 2.2 m.

Type: Pleasure craft. MMSI: 319823000.

Date/timePositionNaut miles runAvg speedWind from/ knotsBaromVisibWave heightAir tempDewpointWater temp
2014-May-10 01:33N 25°19' W 080°06'8 8.4
2014-May-10 00:33N 25°27' W 080°03'8 7.8
2014-May-09 23:34N 25°35' W 080°01'8 7.8
2014-May-09 22:34N 25°42' W 080°02'7 7.9
2014-May-09 21:42N 25°49' W 080°02'9 8.0
2014-May-09 20:33N 25°58' W 080°03'8 7.7
2014-May-09 19:33N 26°06' W 080°05'3 1.5
2014-May-09 17:33N 26°04' W 080°08'0 0.0
2014-May-09 16:32N 26°04' W 080°08'0 0.0
2014-May-09 15:33N 26°04' W 080°08'0 0.0
2014-May-09 14:34N 26°04' W 080°08'0 0.0
2014-May-09 13:33N 26°04' W 080°08'0 0.0
2014-May-09 12:33N 26°04' W 080°08'0 0.0
2014-May-09 11:34N 26°04' W 080°08'0 0.0
2014-May-09 10:34N 26°04' W 080°08'0 0.0
2014-May-09 09:33N 26°04' W 080°08'0 0.0
2014-May-09 08:34N 26°04' W 080°08'0 0.0
2014-May-09 07:33N 26°04' W 080°08'0 0.0
2014-May-09 06:33N 26°04' W 080°08'0 0.0
2014-May-09 05:33N 26°04' W 080°08'0 0.0
2014-May-09 04:33N 26°04' W 080°08'0 0.0
2014-May-09 03:33N 26°04' W 080°08'0 0.0
2014-May-09 02:33N 26°04' W 080°08'0 0.0
2014-May-09 01:33N 26°04' W 080°08'0 0.0
2014-May-09 00:34N 26°04' W 080°08'0 0.0
2014-May-08 23:33N 26°04' W 080°08'0 0.0
2014-May-08 22:33N 26°04' W 080°08'0 0.0
2014-May-08 21:34N 26°04' W 080°08'0 0.0
2014-May-08 20:34N 26°04' W 080°08'0 0.0
2014-May-08 19:33N 26°04' W 080°08'0 0.0
2014-May-08 18:34N 26°04' W 080°08'0 0.0
2014-May-08 17:33N 26°04' W 080°08'0 0.0
2014-May-08 16:33N 26°04' W 080°08'0 0.0
2014-May-08 15:33N 26°04' W 080°08'0 0.0
2014-May-08 14:33N 26°04' W 080°08'0 0.0
2014-May-08 13:33N 26°04' W 080°08'0 0.0
2014-May-08 12:33N 26°04' W 080°08'0 0.0
2014-May-08 11:33N 26°04' W 080°08'0 0.0
2014-May-08 10:33N 26°04' W 080°08'0 0.0
2014-May-08 09:34N 26°04' W 080°08'0 0.0
2014-May-08 08:34N 26°04' W 080°08'0 0.0
2014-May-08 07:34N 26°04' W 080°08'0 0.0
2014-May-08 06:33N 26°04' W 080°08'0 0.0
2014-May-08 05:34N 26°04' W 080°08'0 0.0
2014-May-08 04:34N 26°04' W 080°08'0 0.0
2014-May-08 03:33N 26°04' W 080°08'0 0.0
2014-May-08 02:31N 26°04' W 080°08'0 0.0
2014-May-08 01:32N 26°04' W 080°08'0 0.0
2014-May-08 00:33N 26°04' W 080°08'0 0.0
2014-May-07 23:33N 26°04' W 080°08'0 0.0
2014-May-07 22:33N 26°04' W 080°08'0 0.0
2014-May-07 21:33N 26°04' W 080°08'0 0.0
2014-May-07 20:34N 26°04' W 080°08'0 0.0
2014-May-07 19:34N 26°04' W 080°08'0 0.0
2014-May-07 18:34N 26°04' W 080°08'0 0.0
2014-May-07 17:34N 26°04' W 080°08'0 0.0
2014-May-07 16:34N 26°04' W 080°08'0 0.0
2014-May-07 15:34N 26°04' W 080°08'0 0.0
2014-May-07 14:33N 26°04' W 080°08'0 0.0
2014-May-07 13:33N 26°04' W 080°08'0 0.0
2014-May-07 12:33N 26°04' W 080°08'0 0.0
2014-May-07 11:33N 26°04' W 080°08'0 0.0
2014-May-07 10:33N 26°04' W 080°08'0 0.0
2014-May-07 09:33N 26°04' W 080°08'0 0.0
2014-May-07 08:33N 26°04' W 080°08'0 0.0
2014-May-07 07:33N 26°04' W 080°08'0 0.0
2014-May-07 05:34N 26°04' W 080°08'0 0.0
2014-May-07 04:34N 26°04' W 080°08'0 0.0
2014-May-07 03:34N 26°04' W 080°08'0 0.0
2014-May-07 02:34N 26°04' W 080°08'0 0.0
2014-May-07 01:34N 26°04' W 080°08'0 0.0
2014-May-07 00:33N 26°04' W 080°08'0 0.0
2014-May-06 23:33N 26°04' W 080°08'0 0.0
2014-May-06 22:33N 26°04' W 080°08'0 0.0
2014-May-06 21:33N 26°04' W 080°08'0 0.0
2014-May-06 20:33N 26°04' W 080°08'0 0.0
2014-May-06 19:33N 26°04' W 080°08'0 0.0
2014-May-06 18:33N 26°04' W 080°08'0 0.0
2014-May-06 17:33N 26°04' W 080°08'0 0.0
2014-May-06 16:34N 26°04' W 080°08'0 0.0
2014-May-06 15:34N 26°04' W 080°08'0 0.0
2014-May-06 14:34N 26°04' W 080°08'0 0.0
2014-May-06 13:34N 26°04' W 080°08'0 0.0
2014-May-06 12:33N 26°04' W 080°08'0 0.0
2014-May-06 11:34N 26°04' W 080°08'0 0.0
2014-May-06 10:33N 26°04' W 080°08'0 0.0
2014-May-06 09:33N 26°04' W 080°08'0 0.0
2014-May-06 08:33N 26°04' W 080°08'0 0.0
2014-May-06 07:33N 26°04' W 080°08'0 0.0
2014-May-06 06:33N 26°04' W 080°08'0 0.0
2014-May-06 05:33N 26°04' W 080°08'0 0.0
2014-May-06 04:33N 26°04' W 080°08'0 0.0
2014-May-06 03:34N 26°04' W 080°08'0 0.0
2014-May-06 02:34N 26°04' W 080°08'0 0.0
2014-May-06 01:34N 26°04' W 080°08'0 0.0
2014-May-06 00:34N 26°04' W 080°08'0 0.0
2014-May-05 23:34N 26°04' W 080°08'0 0.0
2014-May-05 22:33N 26°04' W 080°08'0 0.0
2014-May-05 21:34N 26°04' W 080°08'0 0.0
2014-May-05 20:33N 26°04' W 080°08'0 0.0
2014-May-05 19:33N 26°04' W 080°08'0 0.0
2014-May-05 18:33N 26°04' W 080°08'0 0.0
2014-May-05 17:33N 26°04' W 080°08'0 0.0
2014-May-05 16:33N 26°04' W 080°08'0 0.0
2014-May-05 15:33N 26°04' W 080°08'0 0.0
2014-May-05 14:33N 26°04' W 080°08'0 0.0
2014-May-05 13:34N 26°04' W 080°08'0 0.0
2014-May-05 12:34N 26°04' W 080°08'0 0.0
2014-May-05 11:34N 26°04' W 080°08'0 0.0
2014-May-05 10:34N 26°04' W 080°08'0 0.0
2014-May-05 09:34N 26°04' W 080°08'0 0.0
2014-May-05 08:34N 26°04' W 080°08'0 0.0
2014-May-05 07:34N 26°04' W 080°08'0 0.0
2014-May-05 06:33N 26°04' W 080°08'0 0.0
2014-May-05 05:33N 26°04' W 080°08'0 0.0
2014-May-05 04:33N 26°04' W 080°08'0 0.0
2014-May-05 03:33N 26°04' W 080°08'0 0.0
2014-May-05 02:33N 26°04' W 080°08'0 0.0
2014-May-05 01:33N 26°04' W 080°08'0 0.0
2014-May-05 00:33N 26°04' W 080°08'0 0.0
2014-May-04 23:33N 26°04' W 080°08'0 0.0
2014-May-04 22:34N 26°04' W 080°08'0 0.0
2014-May-04 21:34N 26°04' W 080°08'0 0.0
2014-May-04 20:34N 26°04' W 080°08'0 0.0
2014-May-04 19:34N 26°04' W 080°08'0 0.0
2014-May-04 18:34N 26°04' W 080°08'0 0.0
2014-May-04 17:34N 26°04' W 080°08'0 0.0
2014-May-04 16:33N 26°04' W 080°08'0 0.0
2014-May-04 15:33N 26°04' W 080°08'0 0.0
2014-May-04 14:33N 26°04' W 080°08'0 0.0
2014-May-04 13:33N 26°04' W 080°08'0 0.0
2014-May-04 12:33N 26°04' W 080°08'0 0.0
2014-May-04 11:33N 26°04' W 080°08'0 0.0
2014-May-04 10:33N 26°04' W 080°08'0 0.0
2014-May-04 09:34N 26°04' W 080°08'0 0.0
2014-May-04 08:34N 26°04' W 080°08'0 0.0
2014-May-04 07:33N 26°04' W 080°08'0 0.0
2014-May-04 06:33N 26°04' W 080°08'0 0.0
2014-May-04 05:33N 26°04' W 080°08'0 0.0
2014-May-04 04:34N 26°04' W 080°08'0 0.0
2014-May-04 03:34N 26°04' W 080°08'0 0.0
2014-May-04 02:33N 26°04' W 080°08'0 0.0
2014-May-04 01:33N 26°04' W 080°08'0 0.0
2014-May-04 00:33N 26°04' W 080°08'0 0.0
2014-May-03 23:33N 26°04' W 080°08'0 0.0
2014-May-03 22:33N 26°04' W 080°08'0 0.0
2014-May-03 21:33N 26°04' W 080°08'0 0.0
2014-May-03 20:33N 26°04' W 080°08'0 0.0
2014-May-03 19:34N 26°04' W 080°08'0 0.0
2014-May-03 18:33N 26°04' W 080°08'0 0.0
2014-May-03 17:34N 26°04' W 080°08'0 0.0
2014-May-03 16:32N 26°04' W 080°08'0 0.0
2014-May-03 15:34N 26°04' W 080°08'0 0.0
2014-May-03 14:33N 26°04' W 080°08'0 0.0
2014-May-03 13:34N 26°04' W 080°08'0 0.0
2014-May-03 12:33N 26°04' W 080°08'0 0.0
2014-May-03 11:33N 26°04' W 080°08'0 0.0
2014-May-03 10:33N 26°04' W 080°08'0 0.0
2014-May-03 09:33N 26°04' W 080°08'0 0.0
2014-May-03 08:33N 26°04' W 080°08'0 0.0
2014-May-03 07:33N 26°04' W 080°08'0 0.0
2014-May-03 06:33N 26°04' W 080°08'0 0.0
2014-May-03 05:34N 26°04' W 080°08'0 0.0
2014-May-03 04:34N 26°04' W 080°08'0 0.0
2014-May-03 03:34N 26°04' W 080°08'0 0.0
2014-May-03 02:34N 26°04' W 080°08'0 0.0
2014-May-03 01:33N 26°04' W 080°08'0 0.0
2014-May-03 00:34N 26°04' W 080°08'0 0.0
2014-May-02 23:33N 26°04' W 080°08'0 0.0
2014-May-02 22:33N 26°04' W 080°08'0 0.0
2014-May-02 21:33N 26°04' W 080°08'0 0.0
2014-May-02 20:33N 26°04' W 080°08'0 0.0
2014-May-02 19:33N 26°04' W 080°08'0 0.0
2014-May-02 18:33N 26°04' W 080°08'0 0.0
2014-May-02 17:32N 26°04' W 080°08'0 0.0
2014-May-02 16:33N 26°04' W 080°08'0 0.0
2014-May-02 15:33N 26°04' W 080°08'0 0.0
2014-May-02 14:33N 26°04' W 080°08'0 0.0
2014-May-02 13:33N 26°04' W 080°08'0 0.0
2014-May-02 12:33N 26°04' W 080°08'0 0.0
2014-May-02 11:34N 26°04' W 080°08'0 0.0
2014-May-02 10:34N 26°04' W 080°08'0 0.0
2014-May-02 09:33N 26°04' W 080°08'0 0.0
2014-May-02 08:33N 26°04' W 080°08'0 0.0
2014-May-02 07:33N 26°04' W 080°08'0 0.0
2014-May-02 06:33N 26°04' W 080°08'0 0.0
2014-May-02 05:33N 26°04' W 080°08'0 0.0
2014-May-02 04:33N 26°04' W 080°08'0 0.0
2014-May-02 03:33N 26°04' W 080°08'0 0.0
2014-May-02 02:33N 26°04' W 080°08'0 0.0
2014-May-02 01:33N 26°04' W 080°08'0 0.0
2014-May-02 00:33N 26°04' W 080°08'0 0.0
2014-May-01 23:34N 26°04' W 080°08'0 0.0
2014-May-01 22:33N 26°04' W 080°08'0 0.0
2014-May-01 21:32N 26°04' W 080°08'0 0.0
2014-May-01 20:31N 26°04' W 080°08'0 0.0
2014-May-01 19:33N 26°04' W 080°08'0 0.0
2014-May-01 18:33N 26°04' W 080°08'0 0.0
2014-May-01 17:33N 26°04' W 080°08'0 0.0
2014-May-01 16:33N 26°04' W 080°08'0 0.0
2014-May-01 15:33N 26°04' W 080°08'0 0.0
2014-May-01 14:32N 26°04' W 080°08'0 0.0
2014-May-01 13:32N 26°04' W 080°08'0 0.0
2014-May-01 12:34N 26°04' W 080°08'0 0.0
2014-May-01 11:33N 26°04' W 080°08'0 0.0
2014-May-01 10:33N 26°04' W 080°08'0 0.0
2014-May-01 09:31N 26°04' W 080°08'0 0.0
2014-May-01 08:33N 26°04' W 080°08'0 0.0
2014-May-01 07:33N 26°04' W 080°08'0 0.0
2014-May-01 06:33N 26°04' W 080°08'0 0.0
2014-May-01 05:33N 26°04' W 080°08'0 0.0
2014-May-01 04:32N 26°04' W 080°08'0 0.0
2014-May-01 03:33N 26°04' W 080°08'0 0.0
2014-May-01 02:33N 26°04' W 080°08'0 0.0
2014-May-01 01:33N 26°04' W 080°08'0 0.0
2014-May-01 00:33N 26°04' W 080°08'0 0.0
2014-Apr-30 23:32N 26°04' W 080°08'0 0.0
2014-Apr-30 22:34N 26°04' W 080°08'0 0.0
2014-Apr-30 21:33N 26°04' W 080°08'0 0.0
2014-Apr-30 20:34N 26°04' W 080°08'0 0.0
2014-Apr-30 19:34N 26°04' W 080°08'0 0.0
2014-Apr-30 18:33N 26°04' W 080°08'0 0.0
2014-Apr-30 17:34N 26°04' W 080°08'0 0.0
2014-Apr-30 16:33N 26°04' W 080°08'0 0.0
2014-Apr-30 15:33N 26°04' W 080°08'0 0.0
2014-Apr-30 14:33N 26°04' W 080°08'0 0.0
2014-Apr-30 13:33N 26°04' W 080°08'0 0.0
2014-Apr-30 12:33N 26°04' W 080°08'0 0.0
2014-Apr-30 11:33N 26°04' W 080°08'0 0.0
2014-Apr-30 10:33N 26°04' W 080°08'0 0.0
2014-Apr-30 09:33N 26°04' W 080°08'0 0.0
2014-Apr-30 08:33N 26°04' W 080°08'0 0.0
2014-Apr-30 07:34N 26°04' W 080°08'0 0.0
2014-Apr-30 06:34N 26°04' W 080°08'0 0.0
2014-Apr-30 05:34N 26°04' W 080°08'0 0.0
2014-Apr-30 04:34N 26°04' W 080°08'0 0.0
2014-Apr-30 03:34N 26°04' W 080°08'0 0.0
2014-Apr-30 02:34N 26°04' W 080°08'  
Track history (hours):
 
Tides and Currents Weather Stations Pressure Air Temp Water Temp Dewpoint Dewpoint Depression Visibility Wind Speed Wind Dir Waves Ship Positions

My.unforgettable

Last reported at 2014-May-10 01:33 UTC. Time now 2014-Nov-23 13:30 UTC.
Position N 25°19' W 080°06'.
Warning: this ship's position is months out of date.

Length 42 m; draft 2.2 m.

Type: Pleasure craft. MMSI: 319823000.

Date/timePositionNaut miles runAvg speedWind from/ knotsBaromVisibWave heightAir tempDewpointWater temp
2014-May-10 01:33N 25°19' W 080°06'8 8.4
2014-May-10 00:33N 25°27' W 080°03'8 7.8
2014-May-09 23:34N 25°35' W 080°01'8 7.8
2014-May-09 22:34N 25°42' W 080°02'7 7.9
2014-May-09 21:42N 25°49' W 080°02'9 8.0
2014-May-09 20:33N 25°58' W 080°03'8 7.7
2014-May-09 19:33N 26°06' W 080°05'3 1.5
2014-May-09 17:33N 26°04' W 080°08'0 0.0
2014-May-09 16:32N 26°04' W 080°08'0 0.0
2014-May-09 15:33N 26°04' W 080°08'0 0.0
2014-May-09 14:34N 26°04' W 080°08'0 0.0
2014-May-09 13:33N 26°04' W 080°08'0 0.0
2014-May-09 12:33N 26°04' W 080°08'0 0.0
2014-May-09 11:34N 26°04' W 080°08'0 0.0
2014-May-09 10:34N 26°04' W 080°08'0 0.0
2014-May-09 09:33N 26°04' W 080°08'0 0.0
2014-May-09 08:34N 26°04' W 080°08'0 0.0
2014-May-09 07:33N 26°04' W 080°08'0 0.0
2014-May-09 06:33N 26°04' W 080°08'0 0.0
2014-May-09 05:33N 26°04' W 080°08'0 0.0
2014-May-09 04:33N 26°04' W 080°08'0 0.0
2014-May-09 03:33N 26°04' W 080°08'0 0.0
2014-May-09 02:33N 26°04' W 080°08'0 0.0
2014-May-09 01:33N 26°04' W 080°08'0 0.0
2014-May-09 00:34N 26°04' W 080°08'0 0.0
2014-May-08 23:33N 26°04' W 080°08'0 0.0
2014-May-08 22:33N 26°04' W 080°08'0 0.0
2014-May-08 21:34N 26°04' W 080°08'0 0.0
2014-May-08 20:34N 26°04' W 080°08'0 0.0
2014-May-08 19:33N 26°04' W 080°08'0 0.0
2014-May-08 18:34N 26°04' W 080°08'0 0.0
2014-May-08 17:33N 26°04' W 080°08'0 0.0
2014-May-08 16:33N 26°04' W 080°08'0 0.0
2014-May-08 15:33N 26°04' W 080°08'0 0.0
2014-May-08 14:33N 26°04' W 080°08'0 0.0
2014-May-08 13:33N 26°04' W 080°08'0 0.0
2014-May-08 12:33N 26°04' W 080°08'0 0.0
2014-May-08 11:33N 26°04' W 080°08'0 0.0
2014-May-08 10:33N 26°04' W 080°08'0 0.0
2014-May-08 09:34N 26°04' W 080°08'0 0.0
2014-May-08 08:34N 26°04' W 080°08'0 0.0
2014-May-08 07:34N 26°04' W 080°08'0 0.0
2014-May-08 06:33N 26°04' W 080°08'0 0.0
2014-May-08 05:34N 26°04' W 080°08'0 0.0
2014-May-08 04:34N 26°04' W 080°08'0 0.0
2014-May-08 03:33N 26°04' W 080°08'0 0.0
2014-May-08 02:31N 26°04' W 080°08'0 0.0
2014-May-08 01:32N 26°04' W 080°08'0 0.0
2014-May-08 00:33N 26°04' W 080°08'0 0.0
2014-May-07 23:33N 26°04' W 080°08'0 0.0
2014-May-07 22:33N 26°04' W 080°08'0 0.0
2014-May-07 21:33N 26°04' W 080°08'0 0.0
2014-May-07 20:34N 26°04' W 080°08'0 0.0
2014-May-07 19:34N 26°04' W 080°08'0 0.0
2014-May-07 18:34N 26°04' W 080°08'0 0.0
2014-May-07 17:34N 26°04' W 080°08'0 0.0
2014-May-07 16:34N 26°04' W 080°08'0 0.0
2014-May-07 15:34N 26°04' W 080°08'0 0.0
2014-May-07 14:33N 26°04' W 080°08'0 0.0
2014-May-07 13:33N 26°04' W 080°08'0 0.0
2014-May-07 12:33N 26°04' W 080°08'0 0.0
2014-May-07 11:33N 26°04' W 080°08'0 0.0
2014-May-07 10:33N 26°04' W 080°08'0 0.0
2014-May-07 09:33N 26°04' W 080°08'0 0.0
2014-May-07 08:33N 26°04' W 080°08'0 0.0
2014-May-07 07:33N 26°04' W 080°08'0 0.0
2014-May-07 05:34N 26°04' W 080°08'0 0.0
2014-May-07 04:34N 26°04' W 080°08'0 0.0
2014-May-07 03:34N 26°04' W 080°08'0 0.0
2014-May-07 02:34N 26°04' W 080°08'0 0.0
2014-May-07 01:34N 26°04' W 080°08'0 0.0
2014-May-07 00:33N 26°04' W 080°08'0 0.0
2014-May-06 23:33N 26°04' W 080°08'0 0.0
2014-May-06 22:33N 26°04' W 080°08'0 0.0
2014-May-06 21:33N 26°04' W 080°08'0 0.0
2014-May-06 20:33N 26°04' W 080°08'0 0.0
2014-May-06 19:33N 26°04' W 080°08'0 0.0
2014-May-06 18:33N 26°04' W 080°08'0 0.0
2014-May-06 17:33N 26°04' W 080°08'0 0.0
2014-May-06 16:34N 26°04' W 080°08'0 0.0
2014-May-06 15:34N 26°04' W 080°08'0 0.0
2014-May-06 14:34N 26°04' W 080°08'0 0.0
2014-May-06 13:34N 26°04' W 080°08'0 0.0
2014-May-06 12:33N 26°04' W 080°08'0 0.0
2014-May-06 11:34N 26°04' W 080°08'0 0.0
2014-May-06 10:33N 26°04' W 080°08'0 0.0
2014-May-06 09:33N 26°04' W 080°08'0 0.0
2014-May-06 08:33N 26°04' W 080°08'0 0.0
2014-May-06 07:33N 26°04' W 080°08'0 0.0
2014-May-06 06:33N 26°04' W 080°08'0 0.0
2014-May-06 05:33N 26°04' W 080°08'0 0.0
2014-May-06 04:33N 26°04' W 080°08'0 0.0
2014-May-06 03:34N 26°04' W 080°08'0 0.0
2014-May-06 02:34N 26°04' W 080°08'0 0.0
2014-May-06 01:34N 26°04' W 080°08'0 0.0
2014-May-06 00:34N 26°04' W 080°08'0 0.0
2014-May-05 23:34N 26°04' W 080°08'0 0.0
2014-May-05 22:33N 26°04' W 080°08'0 0.0
2014-May-05 21:34N 26°04' W 080°08'0 0.0
2014-May-05 20:33N 26°04' W 080°08'0 0.0
2014-May-05 19:33N 26°04' W 080°08'0 0.0
2014-May-05 18:33N 26°04' W 080°08'0 0.0
2014-May-05 17:33N 26°04' W 080°08'0 0.0
2014-May-05 16:33N 26°04' W 080°08'0 0.0
2014-May-05 15:33N 26°04' W 080°08'0 0.0
2014-May-05 14:33N 26°04' W 080°08'0 0.0
2014-May-05 13:34N 26°04' W 080°08'0 0.0
2014-May-05 12:34N 26°04' W 080°08'0 0.0
2014-May-05 11:34N 26°04' W 080°08'0 0.0
2014-May-05 10:34N 26°04' W 080°08'0 0.0
2014-May-05 09:34N 26°04' W 080°08'0 0.0
2014-May-05 08:34N 26°04' W 080°08'0 0.0
2014-May-05 07:34N 26°04' W 080°08'0 0.0
2014-May-05 06:33N 26°04' W 080°08'0 0.0
2014-May-05 05:33N 26°04' W 080°08'0 0.0
2014-May-05 04:33N 26°04' W 080°08'0 0.0
2014-May-05 03:33N 26°04' W 080°08'0 0.0
2014-May-05 02:33N 26°04' W 080°08'0 0.0
2014-May-05 01:33N 26°04' W 080°08'0 0.0
2014-May-05 00:33N 26°04' W 080°08'0 0.0
2014-May-04 23:33N 26°04' W 080°08'0 0.0
2014-May-04 22:34N 26°04' W 080°08'0 0.0
2014-May-04 21:34N 26°04' W 080°08'0 0.0
2014-May-04 20:34N 26°04' W 080°08'0 0.0
2014-May-04 19:34N 26°04' W 080°08'0 0.0
2014-May-04 18:34N 26°04' W 080°08'0 0.0
2014-May-04 17:34N 26°04' W 080°08'0 0.0
2014-May-04 16:33N 26°04' W 080°08'0 0.0
2014-May-04 15:33N 26°04' W 080°08'0 0.0
2014-May-04 14:33N 26°04' W 080°08'0 0.0
2014-May-04 13:33N 26°04' W 080°08'0 0.0
2014-May-04 12:33N 26°04' W 080°08'0 0.0
2014-May-04 11:33N 26°04' W 080°08'0 0.0
2014-May-04 10:33N 26°04' W 080°08'0 0.0
2014-May-04 09:34N 26°04' W 080°08'0 0.0
2014-May-04 08:34N 26°04' W 080°08'0 0.0
2014-May-04 07:33N 26°04' W 080°08'0 0.0
2014-May-04 06:33N 26°04' W 080°08'0 0.0
2014-May-04 05:33N 26°04' W 080°08'0 0.0
2014-May-04 04:34N 26°04' W 080°08'0 0.0
2014-May-04 03:34N 26°04' W 080°08'0 0.0
2014-May-04 02:33N 26°04' W 080°08'0 0.0
2014-May-04 01:33N 26°04' W 080°08'0 0.0
2014-May-04 00:33N 26°04' W 080°08'0 0.0
2014-May-03 23:33N 26°04' W 080°08'0 0.0
2014-May-03 22:33N 26°04' W 080°08'0 0.0
2014-May-03 21:33N 26°04' W 080°08'0 0.0
2014-May-03 20:33N 26°04' W 080°08'0 0.0
2014-May-03 19:34N 26°04' W 080°08'0 0.0
2014-May-03 18:33N 26°04' W 080°08'0 0.0
2014-May-03 17:34N 26°04' W 080°08'0 0.0
2014-May-03 16:32N 26°04' W 080°08'0 0.0
2014-May-03 15:34N 26°04' W 080°08'0 0.0
2014-May-03 14:33N 26°04' W 080°08'0 0.0
2014-May-03 13:34N 26°04' W 080°08'0 0.0
2014-May-03 12:33N 26°04' W 080°08'0 0.0
2014-May-03 11:33N 26°04' W 080°08'0 0.0
2014-May-03 10:33N 26°04' W 080°08'0 0.0
2014-May-03 09:33N 26°04' W 080°08'0 0.0
2014-May-03 08:33N 26°04' W 080°08'0 0.0
2014-May-03 07:33N 26°04' W 080°08'0 0.0
2014-May-03 06:33N 26°04' W 080°08'0 0.0
2014-May-03 05:34N 26°04' W 080°08'0 0.0
2014-May-03 04:34N 26°04' W 080°08'0 0.0
2014-May-03 03:34N 26°04' W 080°08'0 0.0
2014-May-03 02:34N 26°04' W 080°08'0 0.0
2014-May-03 01:33N 26°04' W 080°08'0 0.0
2014-May-03 00:34N 26°04' W 080°08'0 0.0
2014-May-02 23:33N 26°04' W 080°08'0 0.0
2014-May-02 22:33N 26°04' W 080°08'0 0.0
2014-May-02 21:33N 26°04' W 080°08'0 0.0
2014-May-02 20:33N 26°04' W 080°08'0 0.0
2014-May-02 19:33N 26°04' W 080°08'0 0.0
2014-May-02 18:33N 26°04' W 080°08'0 0.0
2014-May-02 17:32N 26°04' W 080°08'0 0.0
2014-May-02 16:33N 26°04' W 080°08'0 0.0
2014-May-02 15:33N 26°04' W 080°08'0 0.0
2014-May-02 14:33N 26°04' W 080°08'0 0.0
2014-May-02 13:33N 26°04' W 080°08'0 0.0
2014-May-02 12:33N 26°04' W 080°08'0 0.0
2014-May-02 11:34N 26°04' W 080°08'0 0.0
2014-May-02 10:34N 26°04' W 080°08'0 0.0
2014-May-02 09:33N 26°04' W 080°08'0 0.0
2014-May-02 08:33N 26°04' W 080°08'0 0.0
2014-May-02 07:33N 26°04' W 080°08'0 0.0
2014-May-02 06:33N 26°04' W 080°08'0 0.0
2014-May-02 05:33N 26°04' W 080°08'0 0.0
2014-May-02 04:33N 26°04' W 080°08'0 0.0
2014-May-02 03:33N 26°04' W 080°08'0 0.0
2014-May-02 02:33N 26°04' W 080°08'0 0.0
2014-May-02 01:33N 26°04' W 080°08'0 0.0
2014-May-02 00:33N 26°04' W 080°08'0 0.0
2014-May-01 23:34N 26°04' W 080°08'0 0.0
2014-May-01 22:33N 26°04' W 080°08'0 0.0
2014-May-01 21:32N 26°04' W 080°08'0 0.0
2014-May-01 20:31N 26°04' W 080°08'0 0.0
2014-May-01 19:33N 26°04' W 080°08'0 0.0
2014-May-01 18:33N 26°04' W 080°08'0 0.0
2014-May-01 17:33N 26°04' W 080°08'0 0.0
2014-May-01 16:33N 26°04' W 080°08'0 0.0
2014-May-01 15:33N 26°04' W 080°08'0 0.0
2014-May-01 14:32N 26°04' W 080°08'0 0.0
2014-May-01 13:32N 26°04' W 080°08'0 0.0
2014-May-01 12:34N 26°04' W 080°08'0 0.0
2014-May-01 11:33N 26°04' W 080°08'0 0.0
2014-May-01 10:33N 26°04' W 080°08'0 0.0
2014-May-01 09:31N 26°04' W 080°08'0 0.0
2014-May-01 08:33N 26°04' W 080°08'0 0.0
2014-May-01 07:33N 26°04' W 080°08'0 0.0
2014-May-01 06:33N 26°04' W 080°08'0 0.0
2014-May-01 05:33N 26°04' W 080°08'0 0.0
2014-May-01 04:32N 26°04' W 080°08'0 0.0
2014-May-01 03:33N 26°04' W 080°08'0 0.0
2014-May-01 02:33N 26°04' W 080°08'0 0.0
2014-May-01 01:33N 26°04' W 080°08'0 0.0
2014-May-01 00:33N 26°04' W 080°08'0 0.0
2014-Apr-30 23:32N 26°04' W 080°08'0 0.0
2014-Apr-30 22:34N 26°04' W 080°08'0 0.0
2014-Apr-30 21:33N 26°04' W 080°08'0 0.0
2014-Apr-30 20:34N 26°04' W 080°08'0 0.0
2014-Apr-30 19:34N 26°04' W 080°08'0 0.0
2014-Apr-30 18:33N 26°04' W 080°08'0 0.0
2014-Apr-30 17:34N 26°04' W 080°08'0 0.0
2014-Apr-30 16:33N 26°04' W 080°08'0 0.0
2014-Apr-30 15:33N 26°04' W 080°08'0 0.0
2014-Apr-30 14:33N 26°04' W 080°08'0 0.0
2014-Apr-30 13:33N 26°04' W 080°08'0 0.0
2014-Apr-30 12:33N 26°04' W 080°08'0 0.0
2014-Apr-30 11:33N 26°04' W 080°08'0 0.0
2014-Apr-30 10:33N 26°04' W 080°08'0 0.0
2014-Apr-30 09:33N 26°04' W 080°08'0 0.0
2014-Apr-30 08:33N 26°04' W 080°08'0 0.0
2014-Apr-30 07:34N 26°04' W 080°08'0 0.0
2014-Apr-30 06:34N 26°04' W 080°08'0 0.0
2014-Apr-30 05:34N 26°04' W 080°08'0 0.0
2014-Apr-30 04:34N 26°04' W 080°08'0 0.0
2014-Apr-30 03:34N 26°04' W 080°08'0 0.0
2014-Apr-30 02:34N 26°04' W 080°08'  

Dump ship's entire track history